Pagina principale
METAR-TAF:

METAR-TAF

Aeroporti :

Aeroporto di Venezia-Tessera

Venezia, Italia

latitudine: 45-30N, longitudine: 012-20E, altezza: 2 m

Osservazione

Il bollettino è stato emesso 12 minuti fa, alle 20:20 UTC
Vento 10 kt da sud/sud-ovest
Temperature 19°C
Umidità 78%
Pressione 1018 hPa
Visibilità 10 km o più
Poco nuvoloso ad un'altezza di 5000 ft
pioggia debole,

METAR: LIPZ 242020Z 21010KT 9999 -RA FEW050 19/15 Q1018 NOSIG

Ora: 22:32 (20:32 UTC)

Previsione

Il bollettino è stato emesso 3 ore e 32 minuti fa, alle 17:00 UTC
Previsione valida dal 24 alle 18 UTC al 25 alle 24 UTC
Vento 10 kt da sud/sud-est
Visibilità 10 km o più
Nubi sparse ad un'altezza di 2000 ft
Evoluzione graduale
dal 24 alle 21 UTC al 24 alle 23 UTC
Vento 8 kt da nord/nord-est
Temporaneamente
dal 24 alle 22 UTC al 25 alle 07 UTC
pioggia,

TAF: LIPZ 241700Z 2418/2524 15010KT 9999 SCT020 BECMG 2421/2423 03008KT TEMPO 2422/2507 RA

Osservazioni e previsioni meteorologiche di più di 4000 aeroporti (messaggi METAR e TAF).

Le stazioni disponibili sono rappresentate dai dischi gialli e rossi sulla carta.

Puntare il mouse per vedere il nome della stazione.

Clicca sopra per visualizzare le osservazioni e previsioni meteorologiche.

Per cambiare la mappa : fare clic sui pulsanti verdi con una croce nera per ingrandire, il pulsante verde con un trattino per diminuire, o sulla freccia verde per le mappe adiacenti.


METAR-TAF: